createdAt,value
2022-08-31T00:03:57.392Z,100949.41
2022-08-31T00:08:56.650Z,100954.88
2022-08-31T00:13:56.029Z,100956.03
2022-08-31T00:18:54.631Z,100954.72
2022-08-31T00:23:53.189Z,100958.50
2022-08-31T00:28:53.318Z,100965.47
2022-08-31T00:33:52.713Z,100958.16
2022-08-31T00:38:52.024Z,100967.09
2022-08-31T00:43:54.417Z,100962.16
2022-08-31T00:48:59.606Z,100959.06
2022-08-31T00:53:58.371Z,100960.88
2022-08-31T00:58:58.162Z,100962.34
2022-08-31T01:03:56.328Z,100969.75
2022-08-31T01:08:56.898Z,100992.72
2022-08-31T01:13:55.557Z,101004.44
2022-08-31T01:18:58.265Z,101006.09
2022-08-31T01:24:01.227Z,101007.06
2022-08-31T01:29:04.988Z,101002.53
2022-08-31T01:34:03.254Z,101008.19
2022-08-31T01:39:03.034Z,100999.00
2022-08-31T01:44:01.161Z,101003.47
2022-08-31T01:49:00.877Z,101017.72
2022-08-31T01:53:59.025Z,101017.88
2022-08-31T01:58:59.234Z,101006.47
2022-08-31T02:04:04.215Z,101010.19
2022-08-31T02:09:03.592Z,101007.09
2022-08-31T02:14:03.325Z,101016.13
2022-08-31T02:19:01.659Z,101020.25
2022-08-31T02:23:59.982Z,101038.25
2022-08-31T02:28:58.073Z,101041.63
2022-08-31T02:33:57.662Z,101048.91
2022-08-31T02:38:55.954Z,101044.94
2022-08-31T02:43:54.269Z,101048.91
2022-08-31T02:48:53.001Z,101047.84
2022-08-31T02:53:54.007Z,101044.19
2022-08-31T02:58:55.186Z,101052.09
2022-08-31T03:03:55.191Z,101044.84
2022-08-31T03:08:55.131Z,101048.22
2022-08-31T03:13:58.484Z,101036.78
2022-08-31T03:18:57.077Z,101038.84
2022-08-31T03:23:56.652Z,101039.41
2022-08-31T03:28:55.979Z,101039.09
2022-08-31T03:34:15.958Z,101042.28
2022-08-31T03:39:16.072Z,101035.66
2022-08-31T03:44:14.698Z,101036.28
2022-08-31T03:49:18.485Z,101031.56
2022-08-31T03:54:33.070Z,101027.28
2022-08-31T03:59:31.227Z,101023.03
2022-08-31T04:05:01.826Z,101050.84
2022-08-31T04:10:24.329Z,101055.47
2022-08-31T04:15:41.191Z,101049.50
2022-08-31T04:20:57.849Z,101039.56
2022-08-31T04:25:58.441Z,101040.59
2022-08-31T04:30:57.335Z,101047.88
2022-08-31T04:35:55.480Z,101049.63
2022-08-31T04:40:53.771Z,101048.78
2022-08-31T04:45:53.381Z,101041.50
2022-08-31T04:50:52.706Z,101038.78
2022-08-31T04:55:50.796Z,101036.59
2022-08-31T05:00:49.769Z,101035.53
2022-08-31T05:06:17.046Z,101024.63
2022-08-31T05:11:19.030Z,101027.97
2022-08-31T05:16:22.488Z,101032.00
2022-08-31T05:21:28.323Z,101034.53
2022-08-31T05:26:28.311Z,101027.16
2022-08-31T05:31:30.127Z,101030.50
2022-08-31T05:36:31.694Z,101019.69
2022-08-31T05:41:31.088Z,101031.34
2022-08-31T05:46:30.218Z,101027.16
2022-08-31T05:51:28.904Z,101029.25
2022-08-31T05:56:29.415Z,101038.13
2022-08-31T06:01:31.323Z,101037.06
2022-08-31T06:06:45.758Z,101048.56
2022-08-31T06:11:48.034Z,101052.97
2022-08-31T06:16:48.234Z,101054.53
2022-08-31T06:21:51.028Z,101055.25
2022-08-31T06:27:10.319Z,101071.50
2022-08-31T06:32:11.070Z,101080.25
2022-08-31T06:37:19.067Z,101074.38
2022-08-31T06:42:41.753Z,101081.91
2022-08-31T06:48:01.323Z,101088.31
2022-08-31T06:52:59.811Z,101077.44
2022-08-31T06:58:35.123Z,101085.03
2022-08-31T07:03:58.169Z,101079.69
2022-08-31T07:08:58.948Z,101074.94
2022-08-31T07:13:59.843Z,101076.78
2022-08-31T07:19:01.776Z,101076.75
2022-08-31T07:24:02.596Z,101076.78
2022-08-31T07:29:05.172Z,101078.09
2022-08-31T07:34:08.249Z,101079.81
2022-08-31T07:39:32.378Z,101074.44
2022-08-31T07:44:34.636Z,101057.84
2022-08-31T07:49:35.502Z,101063.22
2022-08-31T07:54:39.961Z,101067.22
2022-08-31T08:00:10.474Z,101061.69
2022-08-31T08:05:21.171Z,101056.41
2022-08-31T08:10:52.577Z,101067.09
2022-08-31T08:16:15.426Z,101056.06
2022-08-31T08:21:22.702Z,101061.81
2022-08-31T08:26:22.404Z,101052.06
2022-08-31T08:31:40.915Z,101049.34
2022-08-31T08:36:40.754Z,101047.69
2022-08-31T08:41:42.961Z,101034.81
2022-08-31T08:46:48.095Z,101034.53
2022-08-31T08:51:50.222Z,101019.41
2022-08-31T08:56:49.783Z,101008.81
2022-08-31T09:01:56.425Z,101008.28
2022-08-31T09:07:12.029Z,100995.84
2022-08-31T09:12:26.356Z,101005.16
2022-08-31T09:17:41.401Z,101005.72
2022-08-31T09:22:47.167Z,101003.97
2022-08-31T09:27:57.575Z,100984.06
2022-08-31T09:32:58.905Z,100984.66
2022-08-31T09:38:02.511Z,100984.69
2022-08-31T09:43:07.100Z,100997.94
2022-08-31T09:48:09.169Z,100984.41
2022-08-31T09:53:31.417Z,100977.94
2022-08-31T09:58:31.028Z,100984.19
2022-08-31T10:03:31.789Z,100977.19
2022-08-31T10:08:42.283Z,100973.63
2022-08-31T10:13:43.390Z,100961.88
2022-08-31T10:18:56.216Z,100958.97
2022-08-31T10:24:03.277Z,100944.84
2022-08-31T10:29:06.081Z,100935.53
2022-08-31T10:34:29.154Z,100921.66
2022-08-31T10:39:34.147Z,100915.66
2022-08-31T10:44:42.341Z,100913.13
2022-08-31T10:49:57.780Z,100896.97
2022-08-31T10:55:06.744Z,100903.78
2022-08-31T11:00:08.995Z,100897.13
2022-08-31T11:05:23.033Z,100889.31
2022-08-31T11:10:33.337Z,100876.06
2022-08-31T11:15:57.156Z,100877.03
2022-08-31T11:21:17.354Z,100877.03
2022-08-31T11:26:52.879Z,100867.06
2022-08-31T11:31:55.205Z,100847.97
2022-08-31T11:36:56.769Z,100849.22
2022-08-31T11:41:55.734Z,100838.19
2022-08-31T11:47:06.986Z,100834.88
2022-08-31T11:52:10.522Z,100826.38
2022-08-31T11:57:11.305Z,100812.41
2022-08-31T12:02:44.433Z,100808.41
2022-08-31T12:07:48.387Z,100807.28
2022-08-31T12:13:18.903Z,100811.00
2022-08-31T12:18:31.121Z,100797.69
2022-08-31T12:23:40.041Z,100786.91
2022-08-31T12:28:56.286Z,100790.13
2022-08-31T12:34:00.848Z,100781.13
2022-08-31T12:39:10.199Z,100774.03
2022-08-31T12:44:14.274Z,100767.34
2022-08-31T12:49:31.496Z,100761.06
2022-08-31T12:54:58.528Z,100750.44
2022-08-31T13:00:04.495Z,100754.91
2022-08-31T13:05:03.513Z,100754.97
2022-08-31T13:10:11.656Z,100758.47
2022-08-31T13:15:13.586Z,100763.13
2022-08-31T13:20:19.820Z,100748.84
2022-08-31T13:25:35.930Z,100762.69
2022-08-31T13:30:39.739Z,100755.56
2022-08-31T13:35:39.719Z,100748.31
2022-08-31T13:40:42.117Z,100744.72
2022-08-31T13:45:53.181Z,100745.06
2022-08-31T13:50:59.298Z,100732.56
2022-08-31T13:55:59.028Z,100717.72
2022-08-31T14:01:19.181Z,100731.78
2022-08-31T14:06:24.181Z,100732.41
2022-08-31T14:11:28.527Z,100731.94
2022-08-31T14:16:35.770Z,100725.25
2022-08-31T14:21:36.040Z,100722.00
2022-08-31T14:26:41.617Z,100724.94
2022-08-31T14:31:45.059Z,100722.09
2022-08-31T14:36:50.445Z,100726.84
2022-08-31T14:41:50.345Z,100726.47
2022-08-31T14:46:48.594Z,100727.78
2022-08-31T14:51:47.349Z,100727.00
2022-08-31T14:56:54.569Z,100727.75
2022-08-31T15:01:57.931Z,100733.19
2022-08-31T15:07:09.911Z,100746.13
2022-08-31T15:12:14.716Z,100746.81
2022-08-31T15:17:19.962Z,100735.63
2022-08-31T15:22:19.065Z,100732.47
2022-08-31T15:27:18.989Z,100730.16
2022-08-31T15:32:18.653Z,100717.75
2022-08-31T15:37:17.899Z,100738.31
2022-08-31T15:42:20.888Z,100739.06
2022-08-31T15:47:36.798Z,100748.22
2022-08-31T15:52:36.929Z,100745.72
2022-08-31T15:57:36.883Z,100744.13
2022-08-31T16:02:36.201Z,100743.22
2022-08-31T16:07:35.160Z,100732.03
2022-08-31T16:12:35.095Z,100729.53
2022-08-31T16:17:34.726Z,100726.84
2022-08-31T16:22:33.101Z,100737.50
2022-08-31T16:27:31.334Z,100735.91
2022-08-31T16:32:30.458Z,100747.94
2022-08-31T16:37:30.137Z,100750.22
2022-08-31T16:42:28.610Z,100757.03
2022-08-31T16:47:26.885Z,100754.13
2022-08-31T16:52:27.428Z,100766.13
2022-08-31T16:57:28.823Z,100761.59
2022-08-31T17:02:28.115Z,100766.50
2022-08-31T17:07:26.437Z,100781.34
2022-08-31T17:12:27.405Z,100785.25
2022-08-31T17:17:27.789Z,100792.06
2022-08-31T17:22:32.423Z,100796.06
2022-08-31T17:27:35.145Z,100805.06
2022-08-31T17:32:34.982Z,100807.59
2022-08-31T17:37:36.520Z,100813.75
2022-08-31T17:42:36.764Z,100824.56
2022-08-31T17:47:36.124Z,100826.41
2022-08-31T17:52:34.932Z,100837.22
2022-08-31T17:57:33.391Z,100846.47
2022-08-31T18:02:35.061Z,100839.56
2022-08-31T18:07:33.342Z,100844.16
2022-08-31T18:12:31.546Z,100839.91
2022-08-31T18:17:30.194Z,100836.53
2022-08-31T18:22:30.279Z,100842.38
2022-08-31T18:27:29.325Z,100839.69
2022-08-31T18:32:36.276Z,100843.50
2022-08-31T18:37:36.034Z,100816.91
2022-08-31T18:42:51.778Z,100859.06
2022-08-31T18:53:29.030Z,100867.88
2022-08-31T18:58:28.891Z,100884.66
2022-08-31T19:03:28.374Z,100906.25
2022-08-31T19:08:28.475Z,100910.78
2022-08-31T19:13:30.458Z,100934.06
2022-08-31T19:18:28.702Z,100953.03
2022-08-31T19:23:28.538Z,100950.53
2022-08-31T19:28:26.861Z,100948.31
2022-08-31T19:33:26.184Z,100948.66
2022-08-31T19:38:24.942Z,100944.78
2022-08-31T19:48:44.353Z,100943.31
2022-08-31T19:53:45.124Z,100944.09
2022-08-31T19:58:47.099Z,100940.53
2022-08-31T20:03:46.040Z,100946.22
2022-08-31T20:08:45.911Z,100967.63
2022-08-31T20:13:45.564Z,100967.66
2022-08-31T20:18:47.029Z,100962.31
2022-08-31T20:23:47.865Z,100971.66
2022-08-31T20:28:47.479Z,100962.50
2022-08-31T20:33:46.994Z,100964.69
2022-08-31T20:38:45.199Z,100966.81
2022-08-31T20:43:46.096Z,100962.59
2022-08-31T20:49:03.258Z,100975.63
2022-08-31T20:54:01.479Z,100987.31
2022-08-31T20:59:00.265Z,100966.91
2022-08-31T21:03:59.795Z,100983.72
2022-08-31T21:08:57.905Z,100982.84
2022-08-31T21:13:56.910Z,100981.81
2022-08-31T21:18:55.074Z,100984.44
2022-08-31T21:23:54.597Z,100985.53
2022-08-31T21:28:54.290Z,100981.13
2022-08-31T21:33:54.262Z,100989.63
2022-08-31T21:38:55.022Z,100986.41
2022-08-31T21:43:53.246Z,100986.19
2022-08-31T21:48:54.030Z,100981.31
2022-08-31T21:53:55.702Z,100973.28
2022-08-31T21:58:54.035Z,100981.13
2022-08-31T22:03:56.194Z,100979.84
2022-08-31T22:09:00.596Z,100974.56
2022-08-31T22:13:59.945Z,100972.06
2022-08-31T22:19:01.296Z,100962.41
2022-08-31T22:24:04.804Z,100959.06
2022-08-31T22:29:03.234Z,100946.34
2022-08-31T22:34:01.627Z,100942.72
2022-08-31T22:39:03.515Z,100937.22
2022-08-31T22:44:02.227Z,100925.66
2022-08-31T22:49:01.051Z,100922.78
2022-08-31T22:53:59.803Z,100918.72
2022-08-31T22:59:02.636Z,100910.63
2022-08-31T23:04:06.938Z,100919.72
2022-08-31T23:09:07.904Z,100916.69
2022-08-31T23:14:10.477Z,100926.88
2022-08-31T23:19:12.572Z,100926.97
2022-08-31T23:24:12.896Z,100927.91
2022-08-31T23:29:13.691Z,100924.31
2022-08-31T23:34:13.207Z,100929.63
2022-08-31T23:39:11.620Z,100932.81
2022-08-31T23:44:13.325Z,100927.72
2022-08-31T23:49:15.484Z,100922.97
2022-08-31T23:54:16.552Z,100916.41
2022-08-31T23:59:19.172Z,100918.06
